createdAt,value
2019-03-17T00:01:59.255Z,97065.80
2019-03-17T00:04:31.760Z,97063.59
2019-03-17T00:07:02.744Z,97072.30
2019-03-17T00:09:33.314Z,97072.30
2019-03-17T00:12:03.917Z,97070.69
2019-03-17T00:14:34.606Z,97062.77
2019-03-17T00:17:05.219Z,97061.87
2019-03-17T00:19:35.813Z,97061.67
2019-03-17T00:22:06.389Z,97063.16
2019-03-17T00:24:36.965Z,97056.15
2019-03-17T00:27:07.536Z,97056.33
2019-03-17T00:29:38.186Z,97063.86
2019-03-17T00:32:08.755Z,97049.73
2019-03-17T00:34:44.296Z,97037.13
2019-03-17T00:37:14.926Z,97036.24
2019-03-17T00:39:45.658Z,97033.33
2019-03-17T00:42:16.242Z,97032.83
2019-03-17T00:44:46.842Z,97030.31
2019-03-17T00:47:19.470Z,97032.73
2019-03-17T00:49:50.029Z,97022.52
2019-03-17T00:52:20.598Z,97015.72
2019-03-17T00:54:51.194Z,97021.92
2019-03-17T00:57:21.773Z,97015.51
2019-03-17T00:59:52.401Z,97006.39
2019-03-17T01:02:22.999Z,96999.08
2019-03-17T01:04:56.510Z,96999.88
2019-03-17T01:07:26.588Z,97004.50
2019-03-17T01:09:57.147Z,96994.89
2019-03-17T01:12:27.723Z,96990.67
2019-03-17T01:14:58.300Z,96988.66
2019-03-17T01:17:29.554Z,96977.56
2019-03-17T01:20:00.128Z,96977.47
2019-03-17T01:22:31.990Z,96977.66
2019-03-17T01:25:02.543Z,96970.25
2019-03-17T01:27:36.323Z,96974.66
2019-03-17T01:30:07.624Z,96969.75
2019-03-17T01:32:38.185Z,96971.95
2019-03-17T01:35:10.004Z,96979.77
2019-03-17T01:37:41.074Z,96963.44
2019-03-17T01:40:14.007Z,96962.66
2019-03-17T01:42:44.527Z,96956.15
2019-03-17T01:45:15.177Z,96955.78
2019-03-17T01:47:45.702Z,96955.06
2019-03-17T01:50:16.310Z,96954.88
2019-03-17T01:52:47.600Z,96958.69
2019-03-17T01:55:18.195Z,96944.46
2019-03-17T01:57:48.732Z,96946.04
2019-03-17T02:00:19.367Z,96947.25
2019-03-17T02:02:52.105Z,96950.16
2019-03-17T02:05:25.325Z,96942.75
2019-03-17T02:07:56.081Z,96936.42
2019-03-17T02:10:26.702Z,96938.45
2019-03-17T02:12:57.273Z,96937.45
2019-03-17T02:15:27.863Z,96929.91
2019-03-17T02:17:58.433Z,96916.89
2019-03-17T02:20:30.308Z,96916.52
2019-03-17T02:23:00.932Z,96910.59
2019-03-17T02:25:31.655Z,96902.38
2019-03-17T02:28:02.790Z,96901.77
2019-03-17T02:30:34.007Z,96896.34
2019-03-17T02:33:04.656Z,96888.64
2019-03-17T02:35:39.594Z,96888.12
2019-03-17T02:38:07.555Z,96890.93
2019-03-17T02:40:38.146Z,96879.10
2019-03-17T02:43:08.712Z,96879.00
2019-03-17T02:45:39.302Z,96886.41
2019-03-17T02:48:09.845Z,96877.06
2019-03-17T02:50:41.059Z,96874.27
2019-03-17T02:53:14.494Z,96861.55
2019-03-17T02:55:45.118Z,96855.92
2019-03-17T02:58:16.970Z,96857.22
2019-03-17T03:00:47.722Z,96856.19
2019-03-17T03:03:20.639Z,96853.09
2019-03-17T03:05:55.415Z,96855.50
2019-03-17T03:08:25.266Z,96859.83
2019-03-17T03:10:56.167Z,96849.30
2019-03-17T03:13:26.796Z,96845.97
2019-03-17T03:15:57.407Z,96847.16
2019-03-17T03:18:28.160Z,96843.25
2019-03-17T03:20:59.020Z,96844.44
2019-03-17T03:23:29.576Z,96842.83
2019-03-17T03:26:00.179Z,96833.80
2019-03-17T03:28:30.806Z,96843.00
2019-03-17T03:31:01.549Z,96839.48
2019-03-17T03:33:32.138Z,96837.98
2019-03-17T03:36:10.599Z,96840.28
2019-03-17T03:38:36.019Z,96838.56
2019-03-17T03:41:06.814Z,96836.25
2019-03-17T03:43:37.392Z,96828.73
2019-03-17T03:46:07.962Z,96817.42
2019-03-17T03:48:38.539Z,96829.96
2019-03-17T03:51:09.118Z,96828.13
2019-03-17T03:53:39.687Z,96831.84
2019-03-17T03:56:10.275Z,96834.42
2019-03-17T03:58:41.548Z,96824.30
2019-03-17T04:01:12.149Z,96826.30
2019-03-17T04:03:42.939Z,96825.59
2019-03-17T04:06:25.676Z,96826.06
2019-03-17T04:08:46.453Z,96815.55
2019-03-17T04:11:17.032Z,96817.16
2019-03-17T04:13:47.623Z,96814.25
2019-03-17T04:16:18.232Z,96818.36
2019-03-17T04:18:49.555Z,96820.16
2019-03-17T04:21:20.154Z,96808.69
2019-03-17T04:23:50.692Z,96813.21
2019-03-17T04:26:21.336Z,96820.73
2019-03-17T04:28:52.898Z,96819.31
2019-03-17T04:31:23.641Z,96816.39
2019-03-17T04:33:54.135Z,96815.67
2019-03-17T04:36:24.710Z,96807.57
2019-03-17T04:38:55.275Z,96808.95
2019-03-17T04:41:25.847Z,96813.37
2019-03-17T04:43:56.436Z,96819.08
2019-03-17T04:46:29.741Z,96823.80
2019-03-17T04:49:02.424Z,96831.93
2019-03-17T04:51:33.019Z,96824.80
2019-03-17T04:54:03.557Z,96825.98
2019-03-17T04:56:34.152Z,96812.95
2019-03-17T04:59:04.747Z,96818.09
2019-03-17T05:01:35.348Z,96823.88
2019-03-17T05:04:06.003Z,96820.89
2019-03-17T05:06:36.619Z,96823.19
2019-03-17T05:09:08.940Z,96815.66
2019-03-17T05:11:41.009Z,96827.02
2019-03-17T05:14:11.560Z,96813.98
2019-03-17T05:16:42.160Z,96808.88
2019-03-17T05:19:12.727Z,96817.36
2019-03-17T05:21:43.361Z,96814.25
2019-03-17T05:24:13.908Z,96813.67
2019-03-17T05:26:45.535Z,96811.48
2019-03-17T05:29:16.059Z,96820.31
2019-03-17T05:31:46.688Z,96820.00
2019-03-17T05:34:17.157Z,96810.60
2019-03-17T05:36:49.932Z,96823.80
2019-03-17T05:39:20.473Z,96826.10
2019-03-17T05:41:52.053Z,96820.50
2019-03-17T05:44:22.601Z,96833.66
2019-03-17T05:46:53.210Z,96828.86
2019-03-17T05:49:23.749Z,96818.28
2019-03-17T05:51:54.325Z,96830.24
2019-03-17T05:54:27.188Z,96829.52
2019-03-17T05:56:57.812Z,96832.43
2019-03-17T05:59:28.401Z,96825.53
2019-03-17T06:01:59.057Z,96823.50
2019-03-17T06:04:31.916Z,96836.92
2019-03-17T06:07:02.552Z,96827.41
2019-03-17T06:09:33.117Z,96825.03
2019-03-17T06:12:06.620Z,96823.92
2019-03-17T06:14:37.247Z,96835.66
2019-03-17T06:17:07.884Z,96843.78
2019-03-17T06:19:39.167Z,96839.80
2019-03-17T06:22:09.770Z,96849.84
2019-03-17T06:24:40.300Z,96846.09
2019-03-17T06:27:10.944Z,96848.70
2019-03-17T06:29:41.467Z,96837.69
2019-03-17T06:32:12.063Z,96838.98
2019-03-17T06:34:42.603Z,96837.69
2019-03-17T06:37:13.209Z,96834.19
2019-03-17T06:39:43.792Z,96829.09
2019-03-17T06:42:14.971Z,96841.13
2019-03-17T06:44:45.534Z,96841.83
2019-03-17T06:47:16.126Z,96844.85
2019-03-17T06:49:46.645Z,96836.61
2019-03-17T06:52:17.883Z,96834.73
2019-03-17T06:54:48.477Z,96845.23
2019-03-17T06:57:19.073Z,96841.83
2019-03-17T06:59:49.808Z,96836.30
2019-03-17T07:02:21.374Z,96835.50
2019-03-17T07:04:54.106Z,96842.44
2019-03-17T07:07:24.326Z,96842.71
2019-03-17T07:09:55.133Z,96839.60
2019-03-17T07:12:28.178Z,96856.47
2019-03-17T07:14:58.827Z,96849.56
2019-03-17T07:17:29.439Z,96848.95
2019-03-17T07:20:00.968Z,96855.17
2019-03-17T07:22:32.529Z,96866.72
2019-03-17T07:25:03.058Z,96862.19
2019-03-17T07:27:34.379Z,96857.97
2019-03-17T07:30:05.450Z,96868.02
2019-03-17T07:32:36.029Z,96863.52
2019-03-17T07:35:07.294Z,96866.52
2019-03-17T07:37:37.920Z,96868.02
2019-03-17T07:40:09.888Z,96864.72
2019-03-17T07:42:40.461Z,96865.72
2019-03-17T07:45:14.285Z,96881.05
2019-03-17T07:47:44.867Z,96874.45
2019-03-17T07:50:15.449Z,96869.58
2019-03-17T07:52:48.407Z,96877.67
2019-03-17T07:55:19.054Z,96883.91
2019-03-17T07:57:49.709Z,96876.09
2019-03-17T08:00:31.290Z,96873.78
2019-03-17T08:02:52.511Z,96863.33
2019-03-17T08:05:23.075Z,96861.75
2019-03-17T08:07:53.642Z,96869.58
2019-03-17T08:10:24.224Z,96873.06
2019-03-17T08:12:54.756Z,96863.44
2019-03-17T08:15:25.434Z,96867.85
2019-03-17T08:17:57.874Z,96872.27
2019-03-17T08:20:28.368Z,96874.38
2019-03-17T08:22:58.985Z,96889.82
2019-03-17T08:25:29.513Z,96884.11
2019-03-17T08:28:00.113Z,96885.73
2019-03-17T08:30:33.693Z,96883.63
2019-03-17T08:33:04.272Z,96876.31
2019-03-17T08:35:34.857Z,96876.00
2019-03-17T08:38:05.454Z,96867.38
2019-03-17T08:40:36.044Z,96871.88
2019-03-17T08:43:06.643Z,96875.00
2019-03-17T08:45:37.208Z,96887.94
2019-03-17T08:48:07.831Z,96885.33
2019-03-17T08:50:38.435Z,96892.92
2019-03-17T08:53:09.083Z,96890.94
2019-03-17T08:55:39.740Z,96889.55
2019-03-17T08:58:10.380Z,96903.25
2019-03-17T09:00:40.915Z,96896.12
2019-03-17T09:03:12.594Z,96905.05
2019-03-17T09:05:43.177Z,96908.46
2019-03-17T09:08:13.747Z,96911.46
2019-03-17T09:10:44.323Z,96919.59
2019-03-17T09:13:14.978Z,96924.89
2019-03-17T09:15:45.564Z,96939.05
2019-03-17T09:18:16.302Z,96941.34
2019-03-17T09:20:46.883Z,96932.91
2019-03-17T09:23:19.968Z,96932.00
2019-03-17T09:25:50.519Z,96942.44
2019-03-17T09:28:21.145Z,96936.91
2019-03-17T09:30:53.352Z,96922.45
2019-03-17T09:33:24.009Z,96939.30
2019-03-17T09:35:54.563Z,96951.56
2019-03-17T09:38:25.189Z,96956.28
2019-03-17T09:40:57.922Z,96946.34
2019-03-17T09:43:28.520Z,96942.52
2019-03-17T09:45:59.077Z,96937.72
2019-03-17T09:48:29.646Z,96938.02
2019-03-17T09:51:00.204Z,96940.80
2019-03-17T09:53:30.826Z,96943.91
2019-03-17T09:56:01.441Z,96959.55
2019-03-17T09:58:32.146Z,96955.37
2019-03-17T10:01:02.728Z,96951.15
2019-03-17T10:03:35.314Z,96957.77
2019-03-17T10:06:05.842Z,96950.88
2019-03-17T10:08:36.495Z,96946.56
2019-03-17T10:11:07.264Z,96955.38
2019-03-17T10:13:37.869Z,96954.38
2019-03-17T10:16:08.461Z,96960.92
2019-03-17T10:18:39.100Z,96974.77
2019-03-17T10:21:09.703Z,96989.00
2019-03-17T10:23:40.284Z,97022.92
2019-03-17T10:26:10.836Z,97033.66
2019-03-17T10:28:41.473Z,97046.24
2019-03-17T10:31:12.076Z,97041.02
2019-03-17T10:33:45.550Z,97041.02
2019-03-17T10:36:14.962Z,97042.86
2019-03-17T10:38:45.592Z,97053.53
2019-03-17T10:41:16.221Z,97059.05
2019-03-17T10:43:49.863Z,97064.90
2019-03-17T10:46:20.395Z,97057.37
2019-03-17T10:48:51.018Z,97071.95
2019-03-17T10:51:21.571Z,97079.25
2019-03-17T10:53:55.254Z,97080.42
2019-03-17T10:56:25.820Z,97077.71
2019-03-17T10:58:58.439Z,97078.81
2019-03-17T11:01:28.764Z,97075.00
2019-03-17T11:03:59.377Z,97085.66
2019-03-17T11:06:29.928Z,97095.44
2019-03-17T11:09:00.575Z,97108.73
2019-03-17T11:11:31.196Z,97114.90
2019-03-17T11:14:01.839Z,97115.11
2019-03-17T11:16:32.405Z,97113.56
2019-03-17T11:19:03.078Z,97110.58
2019-03-17T11:21:33.644Z,97109.28
2019-03-17T11:24:04.244Z,97122.22
2019-03-17T11:26:34.761Z,97129.28
2019-03-17T11:29:05.410Z,97130.23
2019-03-17T11:31:35.982Z,97136.84
2019-03-17T11:34:06.568Z,97145.74
2019-03-17T11:36:37.164Z,97150.30
2019-03-17T11:39:09.214Z,97162.50
2019-03-17T11:41:39.860Z,97175.88
2019-03-17T11:44:10.475Z,97183.00
2019-03-17T11:46:41.067Z,97177.23
2019-03-17T11:49:11.717Z,97179.08
2019-03-17T11:51:42.292Z,97188.03
2019-03-17T11:54:12.942Z,97185.17
2019-03-17T11:56:43.524Z,97198.88
2019-03-17T11:59:14.108Z,97186.61
2019-03-17T12:01:45.864Z,97181.83
2019-03-17T12:04:18.589Z,97171.56
2019-03-17T12:06:49.221Z,97173.96
2019-03-17T12:09:28.442Z,97167.50
2019-03-17T12:11:52.130Z,97168.06
2019-03-17T12:14:22.776Z,97164.66
2019-03-17T12:16:53.346Z,97174.89
2019-03-17T12:19:23.980Z,97177.14
2019-03-17T12:21:54.508Z,97188.83
2019-03-17T12:24:25.121Z,97183.13
2019-03-17T12:26:56.653Z,97180.84
2019-03-17T12:29:27.311Z,97183.30
2019-03-17T12:31:57.843Z,97166.90
2019-03-17T12:34:28.767Z,97176.84
2019-03-17T12:37:00.487Z,97165.27
2019-03-17T12:39:31.124Z,97161.30
2019-03-17T12:42:01.750Z,97152.13
2019-03-17T12:44:32.383Z,97152.86
2019-03-17T12:47:04.539Z,97153.17
2019-03-17T12:49:35.217Z,97153.87
2019-03-17T12:52:05.801Z,97152.31
2019-03-17T12:54:36.430Z,97150.71
2019-03-17T12:57:08.977Z,97150.63
2019-03-17T12:59:39.315Z,97156.56
2019-03-17T13:02:09.907Z,97162.05
2019-03-17T13:04:40.539Z,97169.39
2019-03-17T13:07:11.086Z,97172.70
2019-03-17T13:09:41.664Z,97169.80
2019-03-17T13:12:12.228Z,97171.14
2019-03-17T13:14:42.857Z,97174.83
2019-03-17T13:17:13.465Z,97165.59
2019-03-17T13:19:44.041Z,97144.44
2019-03-17T13:22:16.106Z,97156.77
2019-03-17T13:24:48.367Z,97174.11
2019-03-17T13:27:18.955Z,97170.42
2019-03-17T13:29:49.607Z,97159.28
2019-03-17T13:32:20.150Z,97167.33
2019-03-17T13:34:50.769Z,97176.36
2019-03-17T13:37:21.690Z,97181.09
2019-03-17T13:39:52.272Z,97168.32
2019-03-17T13:42:24.151Z,97159.19
2019-03-17T13:44:54.763Z,97170.44
2019-03-17T13:47:25.338Z,97171.74
2019-03-17T13:49:55.935Z,97178.48
2019-03-17T13:52:26.523Z,97176.56
2019-03-17T13:54:57.138Z,97180.78
2019-03-17T13:57:27.726Z,97183.70
2019-03-17T13:59:58.344Z,97186.52
2019-03-17T14:02:28.951Z,97172.27
2019-03-17T14:04:59.573Z,97188.00
2019-03-17T14:07:31.583Z,97180.70
2019-03-17T14:10:13.093Z,97183.08
2019-03-17T14:12:34.529Z,97185.08
2019-03-17T14:15:06.250Z,97180.94
2019-03-17T14:17:36.822Z,97186.73
2019-03-17T14:20:08.913Z,97183.02
2019-03-17T14:22:39.566Z,97183.52
2019-03-17T14:25:14.604Z,97189.03
2019-03-17T14:27:45.144Z,97184.00
2019-03-17T14:30:16.930Z,97190.92
2019-03-17T14:32:47.539Z,97184.75
2019-03-17T14:35:21.165Z,97177.08
2019-03-17T14:37:50.518Z,97190.23
2019-03-17T14:40:21.133Z,97186.97
2019-03-17T14:42:51.757Z,97188.89
2019-03-17T14:45:22.354Z,97193.58
2019-03-17T14:47:52.894Z,97195.28
2019-03-17T14:50:23.545Z,97192.35
2019-03-17T14:52:54.302Z,97212.61
2019-03-17T14:55:26.045Z,97209.33
2019-03-17T14:57:56.611Z,97275.03
2019-03-17T15:00:27.212Z,97329.19
2019-03-17T15:02:57.838Z,97331.39
2019-03-17T15:05:28.485Z,97328.07
2019-03-17T15:07:59.198Z,97334.83
2019-03-17T15:10:32.031Z,97316.77
2019-03-17T15:13:02.592Z,97319.48
2019-03-17T15:15:33.276Z,97327.47
2019-03-17T15:18:03.904Z,97331.45
2019-03-17T15:20:34.521Z,97323.84
2019-03-17T15:23:05.179Z,97324.09
2019-03-17T15:25:35.759Z,97315.67
2019-03-17T15:28:06.434Z,97302.27
2019-03-17T15:30:37.159Z,97291.28
2019-03-17T15:33:07.730Z,97291.32
2019-03-17T15:35:38.309Z,97302.66
2019-03-17T15:38:08.968Z,97301.67
2019-03-17T15:40:39.539Z,97306.56
2019-03-17T15:43:10.171Z,97313.84
2019-03-17T15:45:40.785Z,97313.14
2019-03-17T15:48:16.319Z,97319.69
2019-03-17T15:50:47.204Z,97317.58
2019-03-17T15:53:20.189Z,97327.05
2019-03-17T15:55:50.881Z,97328.03
2019-03-17T15:58:21.405Z,97334.73
2019-03-17T16:00:52.036Z,97341.42
2019-03-17T16:03:22.624Z,97335.08
2019-03-17T16:05:53.211Z,97344.77
2019-03-17T16:08:23.779Z,97346.59
2019-03-17T16:10:56.198Z,97349.41
2019-03-17T16:13:26.820Z,97357.44
2019-03-17T16:15:57.498Z,97356.14
2019-03-17T16:18:28.172Z,97369.79
2019-03-17T16:20:58.870Z,97367.00
2019-03-17T16:23:30.991Z,97367.00
2019-03-17T16:26:01.637Z,97352.20
2019-03-17T16:28:32.243Z,97358.71
2019-03-17T16:31:02.884Z,97352.45
2019-03-17T16:33:33.485Z,97348.34
2019-03-17T16:36:04.100Z,97347.53
2019-03-17T16:38:34.712Z,97343.97
2019-03-17T16:41:06.914Z,97363.00
2019-03-17T16:43:37.486Z,97366.03
2019-03-17T16:46:09.386Z,97363.61
2019-03-17T16:48:39.910Z,97370.38
2019-03-17T16:51:10.539Z,97385.82
2019-03-17T16:53:42.703Z,97393.91
2019-03-17T16:56:13.339Z,97389.78
2019-03-17T16:58:43.912Z,97400.05
2019-03-17T17:01:14.554Z,97404.21
2019-03-17T17:03:45.357Z,97409.30
2019-03-17T17:06:15.994Z,97411.05
2019-03-17T17:08:46.505Z,97416.25
2019-03-17T17:11:17.161Z,97411.70
2019-03-17T17:13:47.732Z,97424.98
2019-03-17T17:16:18.409Z,97430.88
2019-03-17T17:18:48.938Z,97432.23
2019-03-17T17:21:19.524Z,97442.70
2019-03-17T17:23:50.197Z,97440.57
2019-03-17T17:26:20.870Z,97450.37
2019-03-17T17:28:51.463Z,97457.91
2019-03-17T17:31:23.078Z,97467.98
2019-03-17T17:33:53.648Z,97472.47
2019-03-17T17:36:24.288Z,97476.21
2019-03-17T17:38:54.890Z,97476.95
2019-03-17T17:41:25.522Z,97487.95
2019-03-17T17:43:56.074Z,97482.70
2019-03-17T17:46:26.697Z,97486.86
2019-03-17T17:48:57.216Z,97501.03
2019-03-17T17:51:27.873Z,97499.91
2019-03-17T17:53:58.494Z,97502.58
2019-03-17T17:56:29.230Z,97511.48
2019-03-17T17:59:00.067Z,97504.98
2019-03-17T18:01:30.941Z,97503.91
2019-03-17T18:04:01.628Z,97504.92
2019-03-17T18:06:32.270Z,97508.61
2019-03-17T18:09:03.210Z,97514.88
2019-03-17T18:11:39.078Z,97520.27
2019-03-17T18:14:09.638Z,97523.34
2019-03-17T18:16:41.738Z,97518.95
2019-03-17T18:19:12.338Z,97519.44
2019-03-17T18:21:43.020Z,97530.80
2019-03-17T18:24:15.564Z,97545.42
2019-03-17T18:26:45.968Z,97549.00
2019-03-17T18:29:16.515Z,97556.34
2019-03-17T18:31:47.214Z,97560.49
2019-03-17T18:34:17.816Z,97555.48
2019-03-17T18:36:48.423Z,97550.80
2019-03-17T18:39:18.977Z,97565.06
2019-03-17T18:41:49.558Z,97566.53
2019-03-17T18:44:20.157Z,97573.54
2019-03-17T18:46:50.769Z,97580.62
2019-03-17T18:49:21.316Z,97578.70
2019-03-17T18:51:51.978Z,97599.02
2019-03-17T18:54:22.518Z,97602.75
2019-03-17T18:56:53.185Z,97602.96
2019-03-17T18:59:26.063Z,97608.52
2019-03-17T19:01:56.662Z,97618.58
2019-03-17T19:04:27.296Z,97622.00
2019-03-17T19:06:58.166Z,97623.51
2019-03-17T19:09:30.263Z,97628.05
2019-03-17T19:12:00.922Z,97632.81
2019-03-17T19:14:32.705Z,97640.75
2019-03-17T19:17:03.361Z,97638.98
2019-03-17T19:19:36.235Z,97648.88
2019-03-17T19:22:06.862Z,97659.26
2019-03-17T19:24:37.480Z,97657.62
2019-03-17T19:27:08.110Z,97656.34
2019-03-17T19:29:38.737Z,97668.35
2019-03-17T19:32:09.323Z,97667.38
2019-03-17T19:34:39.934Z,97675.80
2019-03-17T19:37:10.610Z,97677.09
2019-03-17T19:39:41.197Z,97681.34
2019-03-17T19:42:11.846Z,97691.72
2019-03-17T19:44:42.503Z,97694.66
2019-03-17T19:47:13.082Z,97702.30
2019-03-17T19:49:43.615Z,97709.28
2019-03-17T19:52:14.227Z,97711.88
2019-03-17T19:54:44.845Z,97709.77
2019-03-17T19:57:15.470Z,97703.62
2019-03-17T19:59:46.049Z,97708.66
2019-03-17T20:02:16.614Z,97712.88
2019-03-17T20:04:49.711Z,97716.92
2019-03-17T20:07:20.270Z,97722.59
2019-03-17T20:09:50.903Z,97723.90
2019-03-17T20:12:23.589Z,97726.20
2019-03-17T20:14:54.163Z,97723.23
2019-03-17T20:17:24.839Z,97739.14
2019-03-17T20:19:55.490Z,97746.77
2019-03-17T20:22:26.126Z,97753.73
2019-03-17T20:24:56.795Z,97747.25
2019-03-17T20:27:27.416Z,97755.36
2019-03-17T20:29:58.038Z,97755.84
2019-03-17T20:32:28.637Z,97759.91
2019-03-17T20:34:59.227Z,97762.00
2019-03-17T20:37:29.820Z,97759.58
2019-03-17T20:40:00.432Z,97757.63
2019-03-17T20:42:31.126Z,97763.47
2019-03-17T20:45:01.714Z,97770.77
2019-03-17T20:47:32.357Z,97778.55
2019-03-17T20:50:06.699Z,97779.99
2019-03-17T20:52:37.341Z,97792.33
2019-03-17T20:55:08.690Z,97789.89
2019-03-17T20:57:39.327Z,97794.91
2019-03-17T21:00:12.764Z,97798.47
2019-03-17T21:02:43.380Z,97806.58
2019-03-17T21:05:14.166Z,97809.66
2019-03-17T21:07:44.971Z,97808.53
2019-03-17T21:10:15.563Z,97822.61
2019-03-17T21:12:46.185Z,97827.79
2019-03-17T21:15:16.782Z,97830.22
2019-03-17T21:17:47.444Z,97831.02
2019-03-17T21:20:17.996Z,97837.50
2019-03-17T21:22:48.643Z,97841.57
2019-03-17T21:25:19.288Z,97841.88
2019-03-17T21:27:49.858Z,97849.66
2019-03-17T21:30:21.513Z,97854.84
2019-03-17T21:32:52.229Z,97856.47
2019-03-17T21:35:22.758Z,97851.14
2019-03-17T21:37:53.414Z,97856.47
2019-03-17T21:40:23.999Z,97857.13
2019-03-17T21:42:54.612Z,97862.13
2019-03-17T21:45:27.544Z,97868.91
2019-03-17T21:47:57.529Z,97877.50
2019-03-17T21:50:28.079Z,97881.05
2019-03-17T21:52:58.698Z,97875.03
2019-03-17T21:55:29.273Z,97873.22
2019-03-17T21:58:07.378Z,97877.26
2019-03-17T22:00:32.173Z,97881.27
2019-03-17T22:03:03.510Z,97873.81
2019-03-17T22:05:36.258Z,97872.19
2019-03-17T22:08:08.029Z,97878.80
2019-03-17T22:10:41.717Z,97887.70
2019-03-17T22:13:12.317Z,97880.70
2019-03-17T22:15:42.871Z,97884.08
2019-03-17T22:18:13.582Z,97878.20
2019-03-17T22:20:46.720Z,97884.52
2019-03-17T22:23:17.855Z,97878.48
2019-03-17T22:25:55.535Z,97882.34
2019-03-17T22:28:28.032Z,97886.51
2019-03-17T22:31:11.550Z,97881.98
2019-03-17T22:33:45.340Z,97893.94
2019-03-17T22:36:22.062Z,97888.22
2019-03-17T22:38:55.172Z,97890.33
2019-03-17T22:41:37.716Z,97884.23
2019-03-17T22:44:09.290Z,97890.59
2019-03-17T22:46:46.047Z,97886.53
2019-03-17T22:49:17.430Z,97883.98
2019-03-17T22:51:54.785Z,97888.69
2019-03-17T22:54:28.948Z,97892.61
2019-03-17T22:57:02.005Z,97897.47
2019-03-17T22:59:36.260Z,97900.91
2019-03-17T23:02:07.340Z,97903.50
2019-03-17T23:04:41.016Z,97898.67
2019-03-17T23:07:12.235Z,97903.67
2019-03-17T23:09:42.771Z,97902.38
2019-03-17T23:12:13.395Z,97898.67
2019-03-17T23:14:44.147Z,97901.91
2019-03-17T23:17:14.727Z,97910.34
2019-03-17T23:19:45.338Z,97910.66
2019-03-17T23:22:18.828Z,97909.09
2019-03-17T23:24:53.074Z,97911.00
2019-03-17T23:27:23.748Z,97910.96
2019-03-17T23:30:00.599Z,97907.72
2019-03-17T23:32:31.498Z,97909.66
2019-03-17T23:35:02.033Z,97905.48
2019-03-17T23:37:38.843Z,97910.83
2019-03-17T23:40:20.035Z,97910.48
2019-03-17T23:42:50.821Z,97915.83
2019-03-17T23:45:22.061Z,97916.75
2019-03-17T23:47:52.669Z,97908.33
2019-03-17T23:50:24.399Z,97906.52
2019-03-17T23:52:56.228Z,97912.01
2019-03-17T23:55:28.939Z,97909.90
2019-03-17T23:57:59.577Z,97912.83
